Time;durP1;ratioP1;P1;durP2;ratioP2;P2;SDS_P1;SDS_P2;PMS_P1;PMS_P2;Temp;Humidity;BMP_temperature;BMP_pressure;BME280_temperature;BME280_humidity;BME280_pressure;Samples;Min_cycle;Max_cycle;Signal;HPM_P1;HPM_P2
2022/08/25 00:01:57;;;;;;;3.50;3.20;;;;;;;18.12;99.45;98248.50;5104508;28;20286;-68
2022/08/25 00:04:24;;;;;;;3.67;3.37;;;;;;;18.11;99.94;98246.78;5101230;28;20245;-68
2022/08/25 00:06:54;;;;;;;3.63;3.33;;;;;;;18.12;100.00;98245.84;5103096;28;20259;-68
2022/08/25 00:09:25;;;;;;;4.20;3.43;;;;;;;18.14;100.00;98241.16;5106571;28;20252;-68
2022/08/25 00:11:55;;;;;;;3.63;3.33;;;;;;;18.16;99.85;98241.84;5103258;28;20269;-69
2022/08/25 00:14:24;;;;;;;3.40;3.10;;;;;;;18.16;99.86;98241.84;5102721;28;20279;-69
2022/08/25 00:16:51;;;;;;;5.00;3.60;;;;;;;18.20;99.57;98237.03;5104238;28;20261;-70
2022/08/25 00:19:20;;;;;;;4.37;3.00;;;;;;;18.20;99.36;98234.34;5102606;28;20254;-70
2022/08/25 00:21:47;;;;;;;4.17;3.77;;;;;;;18.16;99.44;98233.81;5093705;28;20275;-69
2022/08/25 00:24:17;;;;;;;3.77;3.40;;;;;;;18.10;99.92;98231.75;5106997;28;20709;-69
2022/08/25 00:26:46;;;;;;;3.30;3.00;;;;;;;18.05;100.00;98234.03;5108939;28;20577;-69
2022/08/25 00:29:15;;;;;;;3.50;3.20;;;;;;;18.01;100.00;98235.34;5108417;28;20302;-69
2022/08/25 00:31:42;;;;;;;3.47;3.17;;;;;;;17.95;100.00;98235.06;5106950;28;20265;-69
2022/08/25 00:34:13;;;;;;;3.90;3.13;;;;;;;17.91;100.00;98239.88;5106861;28;20226;-69
2022/08/25 00:36:40;;;;;;;3.77;3.40;;;;;;;17.85;100.00;98235.13;5109567;28;20233;-69
2022/08/25 00:39:09;;;;;;;3.60;3.30;;;;;;;17.83;100.00;98234.44;5106507;28;20507;-69
2022/08/25 00:41:38;;;;;;;4.50;4.00;;;;;;;17.86;100.00;98239.47;5106554;28;20226;-69
2022/08/25 00:44:07;;;;;;;3.93;3.53;;;;;;;17.83;100.00;98242.47;5106602;28;20602;-69
2022/08/25 00:46:39;;;;;;;3.83;3.53;;;;;;;17.77;100.00;98237.72;5109827;28;20565;-69
2022/08/25 00:49:09;;;;;;;4.10;3.70;;;;;;;17.70;100.00;98239.28;5108117;28;20269;-69
2022/08/25 00:51:41;;;;;;;4.07;3.67;;;;;;;17.68;100.00;98243.09;5106296;28;20288;-70
2022/08/25 00:54:13;;;;;;;3.80;3.47;;;;;;;17.60;100.00;98241.16;5107338;28;20234;-69
2022/08/25 00:56:40;;;;;;;4.07;3.73;;;;;;;17.56;100.00;98239.75;5108385;28;20232;-69
2022/08/25 00:59:06;;;;;;;3.70;3.40;;;;;;;17.51;100.00;98234.03;5106377;28;20258;-69
2022/08/25 01:01:35;;;;;;;3.50;3.20;;;;;;;17.47;100.00;98237.13;5106196;28;20253;-69
2022/08/25 01:04:02;;;;;;;4.07;3.70;;;;;;;17.45;100.00;98237.28;5107632;28;20261;-69
2022/08/25 01:06:31;;;;;;;3.77;3.43;;;;;;;17.46;100.00;98225.59;5109901;28;20271;-69
2022/08/25 01:08:58;;;;;;;3.83;3.53;;;;;;;17.40;100.00;98234.22;5095537;28;20242;-69
2022/08/25 01:11:25;;;;;;;3.93;3.63;;;;;;;17.35;100.00;98230.22;5106079;28;20265;-69
2022/08/25 01:13:55;;;;;;;4.73;4.23;;;;;;;17.34;100.00;98233.91;5107394;28;20276;-69
2022/08/25 01:16:22;;;;;;;3.50;3.20;;;;;;;17.34;100.00;98224.06;5109690;28;20576;-69
2022/08/25 01:18:53;;;;;;;3.87;3.50;;;;;;;17.37;100.00;98226.47;5105880;28;20265;-69
2022/08/25 01:21:23;;;;;;;4.13;3.73;;;;;;;17.40;100.00;98218.19;5098611;28;20230;-69
2022/08/25 01:23:52;;;;;;;3.87;3.57;;;;;;;17.32;100.00;98215.34;5108609;28;20222;-69
2022/08/25 01:26:22;;;;;;;3.60;3.30;;;;;;;17.26;100.00;98210.56;5108563;28;20325;-69
2022/08/25 01:31:36;;;;;;;4.20;3.70;;;;;;;17.23;100.00;98218.91;5107394;28;20518;-69
2022/08/25 01:34:04;;;;;;;4.20;3.47;;;;;;;17.24;100.00;98220.56;5108295;28;20271;-69
2022/08/25 01:36:32;;;;;;;4.63;4.23;;;;;;;17.30;100.00;98233.34;5095310;28;20234;-69
2022/08/25 01:38:59;;;;;;;3.87;3.57;;;;;;;17.27;100.00;98228.31;5105578;28;20307;-69
2022/08/25 01:41:36;;;;;;;4.20;3.80;;;;;;;17.26;100.00;98231.94;5107374;28;20226;-69
2022/08/25 01:44:05;;;;;;;3.80;3.50;;;;;;;17.24;100.00;98228.59;5107925;28;20218;-69
2022/08/25 01:46:33;;;;;;;5.07;3.97;;;;;;;17.24;100.00;98227.75;5105290;28;20266;-69
2022/08/25 01:49:00;;;;;;;4.37;3.97;;;;;;;17.22;100.00;98221.69;5103482;28;20643;-69
2022/08/25 01:51:33;;;;;;;4.40;4.00;;;;;;;17.23;100.00;98229.56;5108606;28;20264;-69
2022/08/25 01:54:01;;;;;;;4.90;4.40;;;;;;;17.24;100.00;98223.25;5105909;28;20287;-69
2022/08/25 01:56:27;;;;;;;4.00;3.30;;;;;;;17.20;100.00;98224.50;5105285;28;20230;-69
2022/08/25 01:58:54;;;;;;;3.97;3.57;;;;;;;17.15;100.00;98226.78;5105236;28;20219;-69
2022/08/25 02:01:23;;;;;;;4.47;4.07;;;;;;;17.13;100.00;98231.41;5097097;28;20272;-69
2022/08/25 02:03:52;;;;;;;4.63;4.13;;;;;;;17.10;100.00;98225.53;5106692;28;20279;-69
2022/08/25 02:06:22;;;;;;;4.23;3.83;;;;;;;17.08;100.00;98228.34;5105004;28;20604;-69
2022/08/25 02:08:51;;;;;;;4.20;3.80;;;;;;;17.11;100.00;98225.38;5105394;28;20247;-69
2022/08/25 02:11:20;;;;;;;4.50;4.10;;;;;;;17.09;100.00;98227.38;5108764;28;20275;-69
2022/08/25 02:13:46;;;;;;;4.77;4.30;;;;;;;17.09;100.00;98230.03;5103706;28;20305;-69
2022/08/25 02:16:19;;;;;;;5.13;3.77;;;;;;;17.10;100.00;98230.88;5104770;28;20262;-69
2022/08/25 02:18:46;;;;;;;4.73;4.00;;;;;;;17.09;100.00;98230.03;5106126;28;20308;-70
2022/08/25 02:21:13;;;;;;;4.23;3.83;;;;;;;17.03;100.00;98232.44;5104570;28;20249;-69
2022/08/25 02:23:40;;;;;;;4.93;4.53;;;;;;;17.09;100.00;98234.53;5104857;28;20222;-70
2022/08/25 02:26:08;;;;;;;4.27;3.87;;;;;;;17.12;100.00;98229.75;5104654;28;20223;-69
2022/08/25 02:28:37;;;;;;;4.27;3.87;;;;;;;17.07;100.00;98229.31;5115044;28;20273;-70
2022/08/25 02:31:04;;;;;;;5.43;4.23;;;;;;;17.05;100.00;98227.78;5104182;28;20226;-70
2022/08/25 02:33:31;;;;;;;4.13;3.73;;;;;;;17.00;100.00;98224.72;5104612;28;20262;-69
2022/08/25 02:35:59;;;;;;;4.40;3.93;;;;;;;16.92;100.00;98222.75;5104484;28;20230;-69
2022/08/25 02:38:27;;;;;;;5.23;4.53;;;;;;;16.96;100.00;98216.13;5105952;28;20300;-69
2022/08/25 02:40:54;;;;;;;4.43;4.03;;;;;;;16.98;100.00;98216.84;5106282;28;20230;-69
2022/08/25 02:43:20;;;;;;;4.97;4.57;;;;;;;16.98;100.00;98216.84;5104295;28;20226;-69
2022/08/25 02:45:48;;;;;;;4.83;4.33;;;;;;;16.97;100.00;98214.31;5103935;28;20640;-69
2022/08/25 02:48:15;;;;;;;4.97;4.47;;;;;;;16.90;100.00;98219.41;5105392;28;20287;-69
2022/08/25 02:50:46;;;;;;;4.87;4.43;;;;;;;16.93;100.00;98223.59;5107937;28;20226;-69
2022/08/25 02:53:13;;;;;;;5.03;4.47;;;;;;;16.95;100.00;98217.13;5093683;28;20254;-69
2022/08/25 02:55:40;;;;;;;4.83;4.33;;;;;;;16.93;100.00;98212.91;5104129;28;20287;-69
2022/08/25 02:58:07;;;;;;;5.20;4.70;;;;;;;16.90;100.00;98213.22;5105712;28;20227;-69
2022/08/25 03:00:35;;;;;;;4.87;4.43;;;;;;;16.91;100.00;98213.06;5107758;28;20304;-69
2022/08/25 03:03:03;;;;;;;5.23;4.73;;;;;;;16.92;100.00;98217.44;5093526;28;20226;-69
2022/08/25 03:05:30;;;;;;;4.97;4.47;;;;;;;16.98;100.00;98216.00;5102462;28;20234;-69
2022/08/25 03:07:56;;;;;;;5.67;4.90;;;;;;;17.05;100.00;98212.63;5105281;28;20265;-70
2022/08/25 03:10:23;;;;;;;5.83;4.97;;;;;;;17.07;100.00;98217.81;5107490;28;20316;-69
2022/08/25 03:12:50;;;;;;;5.10;4.60;;;;;;;17.09;100.00;98211.34;5103856;28;20222;-69
2022/08/25 03:15:17;;;;;;;5.10;4.60;;;;;;;17.12;100.00;98208.38;5103401;28;20227;-69
2022/08/25 03:17:46;;;;;;;4.83;4.33;;;;;;;17.16;100.00;98208.94;5104835;28;20226;-69
2022/08/25 03:20:14;;;;;;;5.87;4.60;;;;;;;17.20;100.00;98211.16;5107186;28;20252;-69
2022/08/25 03:22:41;;;;;;;5.00;4.50;;;;;;;17.19;100.00;98209.47;5093003;28;20299;-69
2022/08/25 03:27:53;;;;;;;5.53;4.73;;;;;;;17.07;100.00;98210.63;5095622;28;20609;-69
2022/08/25 03:30:20;;;;;;;4.60;4.17;;;;;;;17.04;100.00;98215.41;5105005;28;20291;-69
2022/08/25 03:32:47;;;;;;;5.07;4.57;;;;;;;17.02;100.00;98218.22;5101744;28;20223;-69
2022/08/25 03:35:15;;;;;;;5.83;5.07;;;;;;;17.00;100.00;98212.19;5103364;28;20258;-69
2022/08/25 03:37:42;;;;;;;5.07;4.57;;;;;;;16.99;100.00;98213.19;5095097;28;20275;-70
2022/08/25 03:40:12;;;;;;;5.37;4.87;;;;;;;16.97;100.00;98215.16;5105225;28;20218;-68
2022/08/25 03:42:40;;;;;;;5.67;5.17;;;;;;;16.90;100.00;98207.88;5103235;28;20222;-68
2022/08/25 03:45:10;;;;;;;6.10;5.40;;;;;;;16.93;100.00;98215.56;5103091;28;20227;-68
2022/08/25 03:47:38;;;;;;;5.80;5.20;;;;;;;16.86;100.00;98214.47;5106828;28;20218;-70
2022/08/25 03:50:05;;;;;;;6.83;5.20;;;;;;;16.76;100.00;98211.81;5104062;28;20592;-69
2022/08/25 03:52:33;;;;;;;5.47;4.97;;;;;;;16.71;100.00;98207.91;5103001;28;20293;-69
2022/08/25 03:55:00;;;;;;;5.37;4.83;;;;;;;16.69;100.00;98199.16;5103500;28;20279;-69
2022/08/25 03:57:27;;;;;;;6.13;5.53;;;;;;;16.74;100.00;98208.44;5106291;28;20537;-69
2022/08/25 03:59:54;;;;;;;6.60;5.90;;;;;;;16.83;100.00;98202.25;5102559;28;20226;-69
2022/08/25 04:02:20;;;;;;;6.10;5.50;;;;;;;16.79;100.00;98205.34;5102907;28;20233;-69
2022/08/25 04:04:47;;;;;;;6.33;5.23;;;;;;;16.69;100.00;98205.38;5102941;28;20280;-69
2022/08/25 04:07:14;;;;;;;5.83;5.33;;;;;;;16.53;100.00;98194.41;5106743;28;20617;-69
2022/08/25 04:09:42;;;;;;;5.57;5.00;;;;;;;16.50;100.00;98199.19;5104549;28;20246;-69
2022/08/25 04:12:09;;;;;;;5.80;5.20;;;;;;;16.49;100.00;98193.03;5102866;28;20288;-69
2022/08/25 04:14:36;;;;;;;5.10;4.60;;;;;;;16.47;100.00;98194.16;5102766;28;20226;-69
2022/08/25 04:17:03;;;;;;;5.40;4.90;;;;;;;16.41;100.00;98189.38;5094725;28;20269;-69
2022/08/25 04:19:30;;;;;;;5.80;4.73;;;;;;;16.32;100.00;98185.69;5100952;28;20495;-69
2022/08/25 04:21:57;;;;;;;5.87;5.27;;;;;;;16.35;100.00;98190.72;5102785;28;20279;-69
2022/08/25 04:24:23;;;;;;;6.20;5.10;;;;;;;16.29;100.00;98196.66;5101044;28;20253;-69
2022/08/25 04:26:52;;;;;;;5.57;4.87;;;;;;;16.22;100.00;98195.50;5106385;28;20226;-68
2022/08/25 04:29:21;;;;;;;5.43;4.93;;;;;;;16.18;100.00;98206.59;5104599;28;20252;-68
2022/08/25 04:31:50;;;;;;;6.37;5.00;;;;;;;16.12;100.00;98198.31;5102572;28;20299;-69
2022/08/25 04:34:17;;;;;;;5.40;4.90;;;;;;;16.09;100.00;98205.59;5102604;28;20529;-68
2022/08/25 04:36:44;;;;;;;5.47;4.97;;;;;;;16.09;100.00;98205.59;5094782;28;20287;-69
2022/08/25 04:39:11;;;;;;;4.97;4.07;;;;;;;16.04;100.00;98202.50;5104278;28;20570;-68
2022/08/25 04:41:38;;;;;;;6.43;5.30;;;;;;;15.98;100.00;98196.03;5102578;28;20592;-69
2022/08/25 04:44:06;;;;;;;6.20;5.07;;;;;;;15.95;100.00;98197.16;5102553;28;20297;-69
2022/08/25 04:46:34;;;;;;;5.90;5.03;;;;;;;15.96;100.00;98198.00;5094467;28;20261;-70
2022/08/25 04:49:02;;;;;;;6.53;5.13;;;;;;;16.01;100.00;98193.09;5104138;28;20577;-68
2022/08/25 04:51:32;;;;;;;6.00;5.40;;;;;;;16.08;100.00;98199.56;5100694;28;20283;-68
2022/08/25 04:54:00;;;;;;;6.13;5.20;;;;;;;16.07;100.00;98200.56;5102638;28;20314;-68
2022/08/25 04:56:28;;;;;;;5.30;4.80;;;;;;;16.09;100.00;98197.59;5106250;28;20225;-68
2022/08/25 04:58:56;;;;;;;5.57;5.07;;;;;;;16.12;100.00;98198.31;5103623;28;20226;-68
2022/08/25 05:01:26;;;;;;;5.83;5.23;;;;;;;16.16;100.00;98201.38;5102468;28;20307;-68
2022/08/25 05:03:55;;;;;;;5.47;4.97;;;;;;;16.19;100.00;98206.47;5103191;28;20588;-68
2022/08/25 05:06:22;;;;;;;5.90;5.30;;;;;;;16.28;100.00;98205.63;5106208;28;20225;-69
2022/08/25 05:08:50;;;;;;;5.33;4.83;;;;;;;16.35;100.00;98206.72;5105851;28;20265;-68
2022/08/25 05:11:17;;;;;;;5.30;4.80;;;;;;;16.47;100.00;98208.31;5106175;28;20291;-68
2022/08/25 05:13:45;;;;;;;5.07;4.57;;;;;;;16.58;100.00;98208.19;5100129;28;20674;-68
2022/08/25 05:16:12;;;;;;;5.70;5.20;;;;;;;16.70;100.00;98207.03;5099460;28;20222;-68
2022/08/25 05:18:40;;;;;;;5.60;4.93;;;;;;;16.84;100.00;98208.44;5104975;28;20307;-68
2022/08/25 05:21:09;;;;;;;5.37;4.87;;;;;;;16.97;100.00;98199.16;5105910;28;20219;-68
2022/08/25 05:23:37;;;;;;;6.77;5.00;;;;;;;17.06;100.00;98198.28;5107135;28;20590;-69
2022/08/25 05:26:07;;;;;;;5.77;5.27;;;;;;;17.18;100.00;98202.44;5109604;28;20294;-69
2022/08/25 05:28:34;;;;;;;6.60;5.90;;;;;;;17.30;100.00;98190.59;5110310;28;20232;-68
2022/08/25 05:31:03;;;;;;;6.30;5.50;;;;;;;17.40;100.00;98194.13;5105729;28;20277;-68
2022/08/25 05:33:30;;;;;;;6.90;5.87;;;;;;;17.51;100.00;98199.28;5107681;28;20296;-68
2022/08/25 05:35:58;;;;;;;8.33;6.40;;;;;;;17.65;100.00;98193.44;5109524;28;20296;-68
2022/08/25 05:38:25;;;;;;;6.97;6.20;;;;;;;17.78;100.00;98196.63;5095594;28;20254;-69
2022/08/25 05:40:53;;;;;;;7.27;6.13;;;;;;;17.91;100.00;98207.78;5105597;28;20279;-69
2022/08/25 05:43:19;;;;;;;6.70;6.00;;;;;;;18.04;100.00;98199.41;5105638;28;20599;-69
2022/08/25 05:45:46;;;;;;;6.60;5.90;;;;;;;18.18;100.00;98202.44;5109352;28;20233;-69
2022/08/25 05:48:13;;;;;;;6.53;5.93;;;;;;;18.29;100.00;98202.19;5094831;28;20233;-69
2022/08/25 05:50:39;;;;;;;5.87;5.27;;;;;;;18.36;100.00;98195.25;5105373;28;20311;-69
2022/08/25 05:53:07;;;;;;;5.37;4.87;;;;;;;18.37;100.00;98193.44;5106583;28;20308;-69
2022/08/25 05:55:34;;;;;;;7.87;5.50;;;;;;;18.43;100.00;98193.69;5109177;28;20558;-70
2022/08/25 05:58:01;;;;;;;5.30;4.80;;;;;;;18.50;100.00;98180.50;5105526;28;20624;-69
2022/08/25 06:00:28;;;;;;;5.77;5.27;;;;;;;18.57;100.00;98185.09;5105290;28;20226;-69
2022/08/25 06:02:53;;;;;;;6.37;5.50;;;;;;;18.72;100.00;98182.72;5106253;28;20276;-70
2022/08/25 06:05:22;;;;;;;7.60;6.10;;;;;;;19.11;100.00;98178.63;5109015;28;20226;-70
2022/08/25 06:07:51;;;;;;;7.00;5.50;;;;;;;19.89;98.82;98181.06;5105541;28;20226;-70
2022/08/25 06:10:19;;;;;;;7.23;6.30;;;;;;;20.75;93.20;98178.75;5103188;28;20561;-69
2022/08/25 06:12:47;;;;;;;6.80;5.70;;;;;;;21.58;87.17;98183.66;5106126;28;20226;-70
2022/08/25 06:15:15;;;;;;;7.83;6.13;;;;;;;22.25;82.83;98183.03;5108598;28;20279;-69
2022/08/25 06:17:41;;;;;;;5.83;5.27;;;;;;;22.65;80.27;98181.94;5105017;28;20226;-70
2022/08/25 06:20:12;;;;;;;6.10;5.27;;;;;;;22.53;79.45;98189.63;5101072;28;20256;-70
2022/08/25 06:22:39;;;;;;;6.37;5.73;;;;;;;21.81;82.42;98198.06;5106398;28;20230;-70
2022/08/25 06:25:08;;;;;;;6.30;5.70;;;;;;;21.25;85.56;98206.25;5108505;28;20304;-70
2022/08/25 06:27:37;;;;;;;6.60;5.80;;;;;;;20.89;87.85;98194.22;5094509;28;20272;-70
2022/08/25 06:30:04;;;;;;;6.97;6.27;;;;;;;20.67;89.11;98194.84;5104664;28;20682;-70
2022/08/25 06:32:32;;;;;;;7.67;6.80;;;;;;;20.58;89.60;98201.22;5106525;28;20272;-70
2022/08/25 06:34:59;;;;;;;6.27;5.67;;;;;;;20.50;90.30;98190.47;5107168;28;20322;-70
2022/08/25 06:37:26;;;;;;;6.50;5.90;;;;;;;20.51;90.83;98186.78;5103848;28;20291;-69
2022/08/25 06:39:52;;;;;;;7.10;6.33;;;;;;;20.57;90.51;98194.19;5104392;28;20573;-70
2022/08/25 06:42:19;;;;;;;7.97;6.57;;;;;;;20.64;90.52;98187.13;5106030;28;20368;-69
2022/08/25 06:44:47;;;;;;;7.10;6.40;;;;;;;20.70;89.90;98186.44;5108058;28;20265;-69
2022/08/25 06:47:15;;;;;;;6.70;6.10;;;;;;;20.82;89.39;98187.81;5108681;28;20269;-69
2022/08/25 06:49:41;;;;;;;7.10;6.40;;;;;;;20.95;88.99;98188.16;5104171;28;20284;-69
2022/08/25 06:52:08;;;;;;;6.20;5.60;;;;;;;21.04;88.06;98187.13;5105698;28;20406;-69
2022/08/25 06:54:35;;;;;;;8.43;6.50;;;;;;;21.13;87.59;98183.44;5107899;28;20222;-69
2022/08/25 06:57:02;;;;;;;7.67;6.17;;;;;;;21.25;87.95;98197.34;5104328;28;20363;-69
2022/08/25 06:59:29;;;;;;;7.73;6.73;;;;;;;21.28;87.22;98188.97;5104010;28;20276;-69
2022/08/25 07:01:57;;;;;;;7.00;6.27;;;;;;;21.41;86.44;98190.09;5103276;28;20268;-69
2022/08/25 07:04:23;;;;;;;8.03;6.47;;;;;;;21.54;86.20;98185.03;5107791;28;20611;-69
2022/08/25 07:06:50;;;;;;;8.20;6.73;;;;;;;21.65;84.82;98192.69;5104443;28;20648;-70
2022/08/25 07:09:17;;;;;;;6.97;6.27;;;;;;;21.76;83.91;98180.78;5103851;28;20276;-69
2022/08/25 07:11:45;;;;;;;7.40;6.70;;;;;;;21.82;83.60;98178.22;5104632;28;20281;-70
2022/08/25 07:14:13;;;;;;;7.83;6.63;;;;;;;21.91;83.42;98171.78;5106358;28;20222;-70
2022/08/25 07:16:41;;;;;;;7.73;6.93;;;;;;;21.97;81.90;98168.41;5101622;28;20262;-69
2022/08/25 07:19:10;;;;;;;6.90;6.20;;;;;;;22.04;81.95;98172.06;5102606;28;20226;-69
2022/08/25 07:21:40;;;;;;;6.97;6.27;;;;;;;22.20;82.42;98171.94;5104204;28;20300;-69
2022/08/25 07:24:09;;;;;;;7.23;6.40;;;;;;;22.32;82.00;98167.84;5105075;28;20226;-69
2022/08/25 07:26:36;;;;;;;6.80;6.10;;;;;;;22.37;81.38;98168.13;5083858;28;20276;-69
2022/08/25 07:29:05;;;;;;;6.77;6.07;;;;;;;22.47;80.19;98167.94;5098539;28;20557;-70
2022/08/25 07:31:31;;;;;;;6.10;5.50;;;;;;;22.53;80.14;98170.75;5099350;28;20246;-70
2022/08/25 07:36:44;;;;;;;6.20;5.60;;;;;;;22.76;79.42;98171.59;5100233;28;20401;-68
2022/08/25 07:39:10;;;;;;;6.80;5.70;;;;;;;22.90;78.70;98160.00;5100121;28;20227;-70
2022/08/25 07:41:39;;;;;;;5.87;5.20;;;;;;;23.00;78.50;98155.22;5101389;28;20261;-70
2022/08/25 07:44:07;;;;;;;6.57;5.60;;;;;;;23.14;76.29;98162.47;5101156;28;20599;-69
2022/08/25 07:46:34;;;;;;;6.13;5.53;;;;;;;23.21;76.81;98158.06;5100039;28;20258;-71
2022/08/25 07:49:00;;;;;;;6.43;5.83;;;;;;;23.28;75.87;98159.00;5099997;28;20283;-71
2022/08/25 07:51:27;;;;;;;6.30;5.23;;;;;;;23.38;75.80;98164.09;5100900;28;20246;-71
2022/08/25 07:53:55;;;;;;;5.90;5.30;;;;;;;23.51;75.43;98165.16;5099511;28;20686;-71
2022/08/25 07:56:22;;;;;;;6.13;5.53;;;;;;;23.58;74.90;98166.06;5099917;28;20663;-72
2022/08/25 07:58:49;;;;;;;6.40;5.20;;;;;;;23.69;74.26;98167.47;5099886;28;20262;-72
2022/08/25 08:01:17;;;;;;;6.20;5.43;;;;;;;23.79;74.39;98168.03;5100793;28;20620;-70
2022/08/25 08:03:44;;;;;;;6.03;5.43;;;;;;;23.92;73.58;98157.41;5099741;28;20408;-72
2022/08/25 08:06:13;;;;;;;6.50;5.47;;;;;;;24.00;73.60;98168.09;5098723;28;20283;-70
2022/08/25 08:08:44;;;;;;;6.80;5.20;;;;;;;24.12;73.41;98164.75;5099791;28;20262;-70
2022/08/25 08:11:17;;;;;;;5.63;5.13;;;;;;;24.25;69.99;98164.06;5101285;28;20242;-70
2022/08/25 08:13:44;;;;;;;5.70;5.13;;;;;;;24.39;69.71;98166.69;5099707;28;20257;-69
2022/08/25 08:16:12;;;;;;;5.97;5.20;;;;;;;24.46;69.03;98158.69;5099692;28;20565;-70
2022/08/25 08:18:39;;;;;;;5.67;5.07;;;;;;;24.51;69.99;98165.16;5099609;28;20254;-70
2022/08/25 08:21:11;;;;;;;6.23;5.63;;;;;;;24.54;70.08;98164.81;5097701;28;20583;-71
2022/08/25 08:23:37;;;;;;;5.93;5.43;;;;;;;24.65;69.40;98167.03;5083641;28;20230;-70
2022/08/25 08:26:04;;;;;;;6.17;5.30;;;;;;;24.76;68.92;98162.97;5099445;28;20226;-70
2022/08/25 08:28:33;;;;;;;6.10;5.50;;;;;;;24.90;68.34;98159.34;5099552;28;20504;-70
2022/08/25 08:30:59;;;;;;;5.87;5.00;;;;;;;24.98;68.32;98154.63;5102042;28;20328;-72
2022/08/25 08:33:26;;;;;;;5.93;5.35;;;;;;;25.05;67.20;98160.94;5083125;28;20262;-73
2022/08/25 08:35:57;;;;;;;6.27;5.20;;;;;;;25.10;67.78;98161.19;5099433;28;20226;-73
2022/08/25 08:38:24;;;;;;;5.40;4.90;;;;;;;25.24;67.36;98154.03;5099432;28;20340;-73
2022/08/25 08:43:53;;;;;;;5.50;4.88;;;;;;;25.43;65.20;98145.22;5067757;28;20211;-73
2022/08/25 08:46:22;;;;;;;5.30;4.80;;;;;;;25.51;65.31;98154.03;5101501;28;20279;-73
2022/08/25 08:49:01;;;;;;;5.43;4.93;;;;;;;25.59;65.21;98151.13;5103431;28;20261;-73
2022/08/25 08:51:33;;;;;;;5.00;4.50;;;;;;;25.70;62.69;98152.44;5103123;28;20280;-72
2022/08/25 08:54:08;;;;;;;5.32;4.82;;;;;;;25.77;62.69;98147.88;5103335;28;20227;-73
2022/08/25 08:56:38;;;;;;;4.83;4.43;;;;;;;25.82;61.98;98138.16;5105969;28;20233;-72
2022/08/25 08:59:13;;;;;;;6.53;4.93;;;;;;;25.87;62.78;98137.53;5103196;28;20624;-72
2022/08/25 09:01:47;;;;;;;5.10;4.60;;;;;;;25.92;61.89;98140.50;5103109;28;20300;-73
2022/08/25 09:04:22;;;;;;;5.38;4.78;;;;;;;26.03;61.34;98127.22;5104232;28;20299;-74
2022/08/25 09:06:50;;;;;;;5.22;4.72;;;;;;;26.12;60.36;98139.56;5103098;28;20615;-72
2022/08/25 09:09:34;;;;;;;6.07;4.78;;;;;;;26.20;61.32;98135.84;5102929;28;20261;-72
2022/08/25 09:12:08;;;;;;;5.55;5.05;;;;;;;26.32;59.72;98129.59;5102859;28;20301;-72
2022/08/25 09:14:57;;;;;;;5.55;4.90;;;;;;;26.39;59.55;98127.75;5102996;28;20233;-73
2022/08/25 09:17:40;;;;;;;5.25;4.82;;;;;;;26.42;60.24;98131.91;5102757;28;20222;-72
2022/08/25 09:20:23;;;;;;;5.45;4.82;;;;;;;26.58;58.33;98126.97;5102609;28;20223;-72
2022/08/25 09:23:01;;;;;;;4.95;4.55;;;;;;;26.56;57.66;98123.66;5088356;28;20227;-72
2022/08/25 09:25:38;;;;;;;4.95;4.55;;;;;;;26.56;58.75;98128.22;5102649;28;20283;-72
2022/08/25 09:28:08;;;;;;;5.20;4.75;;;;;;;26.67;59.26;98130.31;5105277;28;20275;-72
2022/08/25 09:30:46;;;;;;;5.18;4.68;;;;;;;26.66;57.29;98112.38;5102462;28;20226;-72
2022/08/25 09:33:19;;;;;;;5.18;4.68;;;;;;;26.77;57.32;98115.31;5102537;28;20247;-72
2022/08/25 09:35:47;;;;;;;5.40;4.82;;;;;;;26.84;57.61;98110.75;5104361;28;20223;-73
2022/08/25 09:38:13;;;;;;;5.65;4.28;;;;;;;27.08;57.17;98112.81;5102524;28;20226;-72
2022/08/25 09:40:45;;;;;;;5.15;4.65;;;;;;;27.07;55.64;98116.56;5101191;28;20490;-72
2022/08/25 09:43:20;;;;;;;5.28;4.78;;;;;;;27.09;55.82;98123.44;5102273;28;20222;-72
2022/08/25 09:45:55;;;;;;;5.05;4.65;;;;;;;27.07;55.27;98111.13;5104832;28;20225;-73
2022/08/25 09:48:25;;;;;;;5.43;4.93;;;;;;;26.91;54.60;98111.56;5102193;28;20261;-73
2022/08/25 09:50:56;;;;;;;5.20;4.30;;;;;;;27.04;55.97;98101.53;5102034;28;20243;-74
2022/08/25 09:53:23;;;;;;;5.15;4.65;;;;;;;27.31;55.31;98102.38;5103345;28;20277;-73
2022/08/25 09:55:56;;;;;;;5.95;4.97;;;;;;;27.52;55.60;98099.41;5099500;28;20230;-73
2022/08/25 09:58:24;;;;;;;5.35;4.85;;;;;;;27.70;55.38;98091.41;5101961;28;20230;-73
2022/08/25 10:01:15;;;;;;;5.10;4.60;;;;;;;27.76;53.86;98096.00;5101986;28;20299;-73
2022/08/25 10:04:00;;;;;;;5.22;4.72;;;;;;;27.86;52.96;98086.34;5100352;28;20226;-73
2022/08/25 10:06:30;;;;;;;5.53;5.03;;;;;;;27.95;50.85;98089.66;5100232;28;20222;-72
2022/08/25 10:09:03;;;;;;;5.10;4.53;;;;;;;27.90;52.84;98092.19;5101857;28;20252;-72
2022/08/25 10:11:38;;;;;;;5.28;4.78;;;;;;;27.89;52.43;98085.09;5099757;28;20631;-73
2022/08/25 10:14:15;;;;;;;5.65;4.70;;;;;;;27.86;52.76;98080.06;5101712;28;20271;-72
2022/08/25 10:16:43;;;;;;;4.90;4.50;;;;;;;28.02;52.76;98074.16;5101584;28;20222;-73
2022/08/25 10:19:13;;;;;;;5.18;4.68;;;;;;;28.22;51.83;98085.75;5102089;28;20635;-73
2022/08/25 10:21:41;;;;;;;4.95;4.55;;;;;;;28.34;51.39;98073.13;5101586;28;20304;-73
2022/08/25 10:24:11;;;;;;;4.78;4.28;;;;;;;28.35;49.66;98066.63;5101606;28;20261;-73
2022/08/25 10:26:52;;;;;;;4.88;4.40;;;;;;;28.42;50.39;98075.63;5101539;28;20234;-74
2022/08/25 10:29:36;;;;;;;5.30;4.80;;;;;;;28.60;50.11;98067.53;5100427;28;20231;-73
2022/08/25 10:32:13;;;;;;;4.88;4.38;;;;;;;28.75;49.92;98078.94;5099622;28;20277;-73
2022/08/25 10:34:47;;;;;;;5.22;4.43;;;;;;;28.74;48.24;98069.91;5102348;28;20230;-73
2022/08/25 10:37:24;;;;;;;4.82;4.32;;;;;;;28.76;48.51;98067.00;5101768;28;20233;-73
2022/08/25 10:40:02;;;;;;;4.80;4.32;;;;;;;28.88;48.09;98057.06;5101263;28;20571;-73
2022/08/25 10:42:35;;;;;;;5.15;4.47;;;;;;;28.89;47.51;98054.13;5101742;28;20253;-73
2022/08/25 10:48:28;;;;;;;4.85;4.10;;;;;;;29.27;47.41;98049.38;5098452;28;20217;-74
2022/08/25 10:51:02;;;;;;;4.43;4.03;;;;;;;29.45;45.52;98056.69;5098581;28;20261;-74
2022/08/25 10:53:44;;;;;;;4.75;4.22;;;;;;;29.41;45.32;98033.72;5099498;28;20337;-73
2022/08/25 10:56:16;;;;;;;4.30;3.83;;;;;;;29.45;45.86;98040.34;5101343;28;20257;-74
2022/08/25 10:59:14;;;;;;;4.45;4.05;;;;;;;29.39;46.16;98031.22;5104277;28;20232;-73
2022/08/25 11:01:55;;;;;;;4.25;3.85;;;;;;;29.44;45.08;98027.81;5095825;28;20651;-73
2022/08/25 11:04:28;;;;;;;4.32;3.78;;;;;;;29.57;45.50;98030.41;5107054;28;20257;-73
2022/08/25 11:06:58;;;;;;;5.10;3.85;;;;;;;29.62;45.07;98036.00;5094157;28;20226;-74
2022/08/25 11:09:29;;;;;;;4.13;3.72;;;;;;;29.60;45.04;98021.78;5102631;28;20309;-74
2022/08/25 11:12:00;;;;;;;4.50;4.07;;;;;;;29.67;45.35;98027.97;5107161;28;20317;-73
2022/08/25 11:14:33;;;;;;;4.35;4.05;;;;;;;29.70;45.55;98014.72;5105067;28;20343;-73
2022/08/25 11:17:06;;;;;;;4.68;4.20;;;;;;;29.65;45.04;98008.31;5102745;28;20230;-73
2022/08/25 11:19:37;;;;;;;4.13;3.83;;;;;;;29.67;45.15;98008.91;5104675;28;20284;-73
2022/08/25 11:22:12;;;;;;;4.80;4.40;;;;;;;29.81;45.06;97999.50;5108014;28;20282;-73
2022/08/25 11:24:47;;;;;;;4.40;4.00;;;;;;;29.95;44.34;98006.44;5093566;28;20260;-73
2022/08/25 11:27:21;;;;;;;4.55;4.18;;;;;;;30.14;44.32;98002.63;5104208;28;20226;-73
2022/08/25 11:29:59;;;;;;;4.45;4.05;;;;;;;30.19;42.78;98000.84;5107861;28;20225;-74
2022/08/25 11:32:26;;;;;;;4.93;3.55;;;;;;;30.27;43.83;98005.97;5094509;28;20246;-74
2022/08/25 11:34:54;;;;;;;4.00;3.70;;;;;;;30.39;42.68;98003.28;5103974;28;20277;-73
2022/08/25 11:37:25;;;;;;;3.88;3.55;;;;;;;30.47;42.94;97998.34;5106634;28;20231;-74
2022/08/25 11:40:12;;;;;;;3.65;3.35;;;;;;;30.47;42.17;97990.16;5107063;28;20226;-74
2022/08/25 11:42:53;;;;;;;4.20;3.55;;;;;;;30.39;41.10;97989.66;5103742;28;20264;-73
2022/08/25 11:45:46;;;;;;;3.85;3.20;;;;;;;30.34;41.01;97990.38;5107314;28;20577;-74
2022/08/25 11:48:22;;;;;;;3.92;3.50;;;;;;;30.21;41.72;97992.47;5093974;28;20223;-74
2022/08/25 11:51:01;;;;;;;4.18;3.35;;;;;;;30.12;42.28;97993.84;5102217;28;20280;-73
2022/08/25 11:53:31;;;;;;;3.88;3.40;;;;;;;29.86;42.57;97994.19;5107550;28;20238;-74
2022/08/25 11:56:03;;;;;;;4.07;3.53;;;;;;;29.60;43.70;97989.09;5103718;28;20258;-74